sensor_id;sensor_type;location;lat;lon;timestamp;pressure;altitude;pressure_sealevel;temperature;humidity
78592;BME280;67889;48.352;11.392;2023-02-18T00:01:37;97048.47;;;9.91;74.56
78592;BME280;67889;48.352;11.392;2023-02-18T00:04:03;97040.25;;;9.87;74.59
78592;BME280;67889;48.352;11.392;2023-02-18T00:06:31;97019.97;;;9.81;74.52
78592;BME280;67889;48.352;11.392;2023-02-18T00:08:58;97031.56;;;10.01;74.24
78592;BME280;67889;48.352;11.392;2023-02-18T00:11:27;97042.19;;;10.10;74.32
78592;BME280;67889;48.352;11.392;2023-02-18T00:13:56;97029.44;;;9.91;74.64
78592;BME280;67889;48.352;11.392;2023-02-18T00:16:23;97027.44;;;9.88;74.70
78592;BME280;67889;48.352;11.392;2023-02-18T00:18:49;97074.84;;;10.13;74.61
78592;BME280;67889;48.352;11.392;2023-02-18T00:21:14;97055.59;;;9.99;74.73
78592;BME280;67889;48.352;11.392;2023-02-18T00:23:40;97036.63;;;9.80;74.86
78592;BME280;67889;48.352;11.392;2023-02-18T00:26:09;97030.09;;;9.84;74.58
78592;BME280;67889;48.352;11.392;2023-02-18T00:28:35;97086.91;;;10.16;74.85
78592;BME280;67889;48.352;11.392;2023-02-18T00:31:08;97103.00;;;10.24;74.80
78592;BME280;67889;48.352;11.392;2023-02-18T00:33:34;97107.81;;;10.12;75.27
78592;BME280;67889;48.352;11.392;2023-02-18T00:36:00;97111.25;;;10.09;75.65
78592;BME280;67889;48.352;11.392;2023-02-18T00:38:25;97063.78;;;9.80;75.62
78592;BME280;67889;48.352;11.392;2023-02-18T00:40:50;97040.34;;;9.72;75.47
78592;BME280;67889;48.352;11.392;2023-02-18T00:43:16;97060.16;;;9.95;75.20
78592;BME280;67889;48.352;11.392;2023-02-18T00:45:41;97020.97;;;9.73;75.20
78592;BME280;67889;48.352;11.392;2023-02-18T00:48:06;97059.03;;;9.96;75.46
78592;BME280;67889;48.352;11.392;2023-02-18T00:50:32;97064.03;;;9.94;75.79
78592;BME280;67889;48.352;11.392;2023-02-18T00:52:57;97085.88;;;10.20;75.37
78592;BME280;67889;48.352;11.392;2023-02-18T00:55:22;97007.16;;;9.82;75.29
78592;BME280;67889;48.352;11.392;2023-02-18T00:57:47;97067.13;;;10.15;75.62
78592;BME280;67889;48.352;11.392;2023-02-18T01:00:13;97054.19;;;10.09;75.50
78592;BME280;67889;48.352;11.392;2023-02-18T01:02:38;97037.22;;;9.92;75.80
78592;BME280;67889;48.352;11.392;2023-02-18T01:05:04;97010.44;;;9.91;75.15
78592;BME280;67889;48.352;11.392;2023-02-18T01:07:29;97016.09;;;9.82;75.71
78592;BME280;67889;48.352;11.392;2023-02-18T01:09:55;97006.25;;;9.74;75.85
78592;BME280;67889;48.352;11.392;2023-02-18T01:12:20;97049.13;;;10.07;75.69
78592;BME280;67889;48.352;11.392;2023-02-18T01:14:45;96998.53;;;9.76;75.79
78592;BME280;67889;48.352;11.392;2023-02-18T01:17:11;97029.56;;;9.98;75.48
78592;BME280;67889;48.352;11.392;2023-02-18T01:19:36;97040.53;;;10.05;75.59
78592;BME280;67889;48.352;11.392;2023-02-18T01:22:01;97035.03;;;9.79;76.00
78592;BME280;67889;48.352;11.392;2023-02-18T01:24:26;97015.00;;;9.87;75.66
78592;BME280;67889;48.352;11.392;2023-02-18T01:26:52;97035.13;;;10.05;75.74
78592;BME280;67889;48.352;11.392;2023-02-18T01:29:17;97059.31;;;10.14;75.83
78592;BME280;67889;48.352;11.392;2023-02-18T01:31:42;97058.53;;;10.13;75.73
78592;BME280;67889;48.352;11.392;2023-02-18T01:34:08;97046.38;;;10.26;75.54
78592;BME280;67889;48.352;11.392;2023-02-18T01:36:33;97039.66;;;10.20;75.57
78592;BME280;67889;48.352;11.392;2023-02-18T01:38:58;97053.94;;;10.17;75.99
78592;BME280;67889;48.352;11.392;2023-02-18T01:41:24;97041.63;;;10.00;76.27
78592;BME280;67889;48.352;11.392;2023-02-18T01:44:10;97056.19;;;10.12;76.31
78592;BME280;67889;48.352;11.392;2023-02-18T01:46:35;97013.88;;;9.88;75.88
78592;BME280;67889;48.352;11.392;2023-02-18T01:49:01;96998.19;;;9.78;76.29
78592;BME280;67889;48.352;11.392;2023-02-18T01:51:29;96997.25;;;9.70;76.26
78592;BME280;67889;48.352;11.392;2023-02-18T01:54:01;97000.03;;;9.96;76.02
78592;BME280;67889;48.352;11.392;2023-02-18T01:56:36;97028.66;;;10.13;75.91
78592;BME280;67889;48.352;11.392;2023-02-18T01:59:05;97009.75;;;9.97;76.25
78592;BME280;67889;48.352;11.392;2023-02-18T02:01:33;96989.41;;;9.88;76.27
78592;BME280;67889;48.352;11.392;2023-02-18T02:03:59;97029.38;;;10.10;76.49
78592;BME280;67889;48.352;11.392;2023-02-18T02:06:24;97036.00;;;10.13;76.63
78592;BME280;67889;48.352;11.392;2023-02-18T02:08:53;97003.97;;;9.99;76.41
78592;BME280;67889;48.352;11.392;2023-02-18T02:14:41;97021.06;;;10.22;76.48
78592;BME280;67889;48.352;11.392;2023-02-18T02:17:06;97019.59;;;10.28;75.89
78592;BME280;67889;48.352;11.392;2023-02-18T02:22:48;97020.63;;;10.20;76.10
78592;BME280;67889;48.352;11.392;2023-02-18T02:25:49;97019.78;;;10.16;76.21
78592;BME280;67889;48.352;11.392;2023-02-18T02:37:11;97002.47;;;9.79;77.60
78592;BME280;67889;48.352;11.392;2023-02-18T02:43:02;96998.06;;;9.93;76.62
78592;BME280;67889;48.352;11.392;2023-02-18T02:45:37;97007.28;;;10.12;75.91
78592;BME280;67889;48.352;11.392;2023-02-18T02:48:24;97013.91;;;10.14;75.86
78592;BME280;67889;48.352;11.392;2023-02-18T02:51:12;97007.75;;;10.17;75.68
78592;BME280;67889;48.352;11.392;2023-02-18T02:53:40;97009.88;;;10.27;75.16
78592;BME280;67889;48.352;11.392;2023-02-18T02:56:20;97002.63;;;10.12;75.57
78592;BME280;67889;48.352;11.392;2023-02-18T02:58:59;96992.06;;;10.07;76.12
78592;BME280;67889;48.352;11.392;2023-02-18T03:04:53;96994.84;;;9.88;76.79
78592;BME280;67889;48.352;11.392;2023-02-18T03:15:23;96983.31;;;9.94;76.42
78592;BME280;67889;48.352;11.392;2023-02-18T03:18:07;96984.72;;;9.85;76.86
78592;BME280;67889;48.352;11.392;2023-02-18T03:20:49;96970.09;;;9.93;76.61
78592;BME280;67889;48.352;11.392;2023-02-18T03:23:20;96975.22;;;9.98;76.52
78592;BME280;67889;48.352;11.392;2023-02-18T03:25:49;96980.41;;;10.07;75.79
78592;BME280;67889;48.352;11.392;2023-02-18T03:28:17;96981.19;;;10.07;75.93
78592;BME280;67889;48.352;11.392;2023-02-18T03:30:56;96969.44;;;9.99;75.73
78592;BME280;67889;48.352;11.392;2023-02-18T03:33:27;96981.56;;;10.06;75.86
78592;BME280;67889;48.352;11.392;2023-02-18T03:35:55;96979.75;;;10.13;75.58
78592;BME280;67889;48.352;11.392;2023-02-18T03:38:44;96975.22;;;10.21;75.19
78592;BME280;67889;48.352;11.392;2023-02-18T03:41:13;96982.28;;;10.25;74.72
78592;BME280;67889;48.352;11.392;2023-02-18T03:43:40;96959.81;;;10.06;75.02
78592;BME280;67889;48.352;11.392;2023-02-18T03:46:12;96990.38;;;10.22;75.08
78592;BME280;67889;48.352;11.392;2023-02-18T03:48:38;96981.72;;;10.16;74.81
78592;BME280;67889;48.352;11.392;2023-02-18T03:51:03;96973.09;;;10.11;75.05
78592;BME280;67889;48.352;11.392;2023-02-18T03:53:28;96940.69;;;9.98;75.09
78592;BME280;67889;48.352;11.392;2023-02-18T03:55:54;96977.28;;;10.05;74.91
78592;BME280;67889;48.352;11.392;2023-02-18T03:58:19;96924.13;;;9.58;75.39
78592;BME280;67889;48.352;11.392;2023-02-18T04:00:44;96967.81;;;9.95;74.92
78592;BME280;67889;48.352;11.392;2023-02-18T04:03:10;96908.69;;;9.62;74.95
78592;BME280;67889;48.352;11.392;2023-02-18T04:05:35;96925.41;;;9.64;75.08
78592;BME280;67889;48.352;11.392;2023-02-18T04:08:00;96940.25;;;9.70;74.86
78592;BME280;67889;48.352;11.392;2023-02-18T04:10:26;96923.84;;;9.63;75.07
78592;BME280;67889;48.352;11.392;2023-02-18T04:12:51;96948.25;;;9.86;75.76
78592;BME280;67889;48.352;11.392;2023-02-18T04:15:16;96956.47;;;9.89;76.00
78592;BME280;67889;48.352;11.392;2023-02-18T04:17:42;96936.56;;;9.59;76.82
78592;BME280;67889;48.352;11.392;2023-02-18T04:20:07;96978.66;;;9.95;76.62
78592;BME280;67889;48.352;11.392;2023-02-18T04:22:32;96926.00;;;9.54;76.70
78592;BME280;67889;48.352;11.392;2023-02-18T04:24:58;96970.34;;;9.84;76.81
78592;BME280;67889;48.352;11.392;2023-02-18T04:27:24;96935.34;;;9.56;77.14
78592;BME280;67889;48.352;11.392;2023-02-18T04:29:49;96918.66;;;9.54;77.22
78592;BME280;67889;48.352;11.392;2023-02-18T04:32:15;96949.41;;;9.62;77.49
78592;BME280;67889;48.352;11.392;2023-02-18T04:34:40;96988.34;;;9.92;77.47
78592;BME280;67889;48.352;11.392;2023-02-18T04:37:06;96942.66;;;9.52;77.75
78592;BME280;67889;48.352;11.392;2023-02-18T04:39:31;96962.31;;;9.68;77.64
78592;BME280;67889;48.352;11.392;2023-02-18T04:41:56;96990.09;;;9.81;77.54
78592;BME280;67889;48.352;11.392;2023-02-18T04:44:22;97009.75;;;9.97;77.22
78592;BME280;67889;48.352;11.392;2023-02-18T04:46:47;96990.50;;;9.83;77.47
78592;BME280;67889;48.352;11.392;2023-02-18T04:49:12;96977.41;;;9.89;76.85
78592;BME280;67889;48.352;11.392;2023-02-18T04:51:38;96973.38;;;9.79;77.05
78592;BME280;67889;48.352;11.392;2023-02-18T04:54:04;96988.22;;;9.85;77.35
78592;BME280;67889;48.352;11.392;2023-02-18T04:56:29;96999.94;;;9.89;77.26
78592;BME280;67889;48.352;11.392;2023-02-18T04:58:54;96944.47;;;9.67;76.82
78592;BME280;67889;48.352;11.392;2023-02-18T05:01:19;96990.38;;;9.99;76.82
78592;BME280;67889;48.352;11.392;2023-02-18T05:03:45;96941.56;;;9.57;76.77
78592;BME280;67889;48.352;11.392;2023-02-18T05:06:11;96930.28;;;9.55;77.07
78592;BME280;67889;48.352;11.392;2023-02-18T05:08:36;96987.00;;;9.83;77.17
78592;BME280;67889;48.352;11.392;2023-02-18T05:11:06;96985.63;;;9.92;76.92
78592;BME280;67889;48.352;11.392;2023-02-18T05:13:32;96912.97;;;9.40;77.13
78592;BME280;67889;48.352;11.392;2023-02-18T05:15:57;96958.28;;;9.59;76.93
78592;BME280;67889;48.352;11.392;2023-02-18T05:18:22;96916.28;;;9.30;77.37
78592;BME280;67889;48.352;11.392;2023-02-18T05:20:48;96958.53;;;9.73;76.93
78592;BME280;67889;48.352;11.392;2023-02-18T05:23:13;96921.06;;;9.36;77.07
78592;BME280;67889;48.352;11.392;2023-02-18T05:25:38;96946.88;;;9.50;77.00
78592;BME280;67889;48.352;11.392;2023-02-18T05:28:04;96905.56;;;9.37;76.79
78592;BME280;67889;48.352;11.392;2023-02-18T05:30:29;96949.47;;;9.65;76.57
78592;BME280;67889;48.352;11.392;2023-02-18T05:32:55;96976.94;;;9.83;76.72
78592;BME280;67889;48.352;11.392;2023-02-18T05:35:20;96964.44;;;9.79;76.67
78592;BME280;67889;48.352;11.392;2023-02-18T05:37:45;96978.06;;;9.82;76.78
78592;BME280;67889;48.352;11.392;2023-02-18T05:40:11;96965.66;;;9.81;76.58
78592;BME280;67889;48.352;11.392;2023-02-18T05:42:36;96970.34;;;9.84;76.74
78592;BME280;67889;48.352;11.392;2023-02-18T05:45:02;96975.84;;;9.88;76.42
78592;BME280;67889;48.352;11.392;2023-02-18T05:47:28;96931.31;;;9.69;76.53
78592;BME280;67889;48.352;11.392;2023-02-18T05:49:53;96949.78;;;9.83;76.34
78592;BME280;67889;48.352;11.392;2023-02-18T05:52:20;96946.75;;;9.65;76.67
78592;BME280;67889;48.352;11.392;2023-02-18T05:54:46;96973.06;;;9.84;76.44
78592;BME280;67889;48.352;11.392;2023-02-18T05:57:15;96915.09;;;9.50;76.54
78592;BME280;67889;48.352;11.392;2023-02-18T05:59:40;96910.03;;;9.49;76.46
78592;BME280;67889;48.352;11.392;2023-02-18T06:02:06;96924.06;;;9.54;76.18
78592;BME280;67889;48.352;11.392;2023-02-18T06:04:31;96902.34;;;9.54;76.12
78592;BME280;67889;48.352;11.392;2023-02-18T06:06:57;96909.34;;;9.55;76.09
78592;BME280;67889;48.352;11.392;2023-02-18T06:09:22;96931.97;;;9.63;75.89
78592;BME280;67889;48.352;11.392;2023-02-18T06:11:48;96948.69;;;9.65;76.45
78592;BME280;67889;48.352;11.392;2023-02-18T06:14:13;96934.63;;;9.59;76.07
78592;BME280;67889;48.352;11.392;2023-02-18T06:16:38;96949.72;;;9.57;76.71
78592;BME280;67889;48.352;11.392;2023-02-18T06:19:04;96960.03;;;9.70;76.01
78592;BME280;67889;48.352;11.392;2023-02-18T06:21:29;96988.63;;;9.87;76.29
78592;BME280;67889;48.352;11.392;2023-02-18T06:23:55;96966.91;;;9.64;76.25
78592;BME280;67889;48.352;11.392;2023-02-18T06:26:20;96955.31;;;9.67;76.35
78592;BME280;67889;48.352;11.392;2023-02-18T06:28:45;96992.69;;;9.97;75.90
78592;BME280;67889;48.352;11.392;2023-02-18T06:31:11;96935.84;;;9.62;75.69
78592;BME280;67889;48.352;11.392;2023-02-18T06:33:36;96954.34;;;9.79;75.53
78592;BME280;67889;48.352;11.392;2023-02-18T06:36:05;96938.72;;;9.73;75.50
78592;BME280;67889;48.352;11.392;2023-02-18T06:38:36;96960.16;;;9.78;75.45
78592;BME280;67889;48.352;11.392;2023-02-18T06:41:02;96941.94;;;9.78;75.04
78592;BME280;67889;48.352;11.392;2023-02-18T06:43:28;96948.13;;;9.79;74.82
78592;BME280;67889;48.352;11.392;2023-02-18T06:45:53;96929.50;;;9.77;74.33
78592;BME280;67889;48.352;11.392;2023-02-18T06:48:19;96935.72;;;9.78;74.35
78592;BME280;67889;48.352;11.392;2023-02-18T06:50:44;96998.13;;;10.20;74.30
78592;BME280;67889;48.352;11.392;2023-02-18T06:53:10;96980.41;;;10.07;74.49
78592;BME280;67889;48.352;11.392;2023-02-18T06:55:36;96937.03;;;9.87;73.93
78592;BME280;67889;48.352;11.392;2023-02-18T06:58:02;96938.19;;;9.86;73.94
78592;BME280;67889;48.352;11.392;2023-02-18T07:00:27;96998.34;;;10.34;73.63
78592;BME280;67889;48.352;11.392;2023-02-18T07:02:53;96948.38;;;9.93;73.73
78592;BME280;67889;48.352;11.392;2023-02-18T07:05:18;97000.75;;;10.39;73.41
78592;BME280;67889;48.352;11.392;2023-02-18T07:07:43;96996.09;;;10.40;73.45
78592;BME280;67889;48.352;11.392;2023-02-18T07:10:09;96990.31;;;10.41;73.29
78592;BME280;67889;48.352;11.392;2023-02-18T07:12:34;96994.88;;;10.37;73.61
78592;BME280;67889;48.352;11.392;2023-02-18T07:15:00;96988.19;;;10.31;73.71
78592;BME280;67889;48.352;11.392;2023-02-18T07:17:25;96987.66;;;10.45;73.00
78592;BME280;67889;48.352;11.392;2023-02-18T07:19:51;96979.84;;;10.43;72.87
78592;BME280;67889;48.352;11.392;2023-02-18T07:22:17;96970.38;;;10.33;72.99
78592;BME280;67889;48.352;11.392;2023-02-18T07:24:42;96938.25;;;10.16;72.84
78592;BME280;67889;48.352;11.392;2023-02-18T07:27:07;96976.81;;;10.48;72.45
78592;BME280;67889;48.352;11.392;2023-02-18T07:29:33;96986.75;;;10.63;72.51
78592;BME280;67889;48.352;11.392;2023-02-18T07:31:58;96994.81;;;10.56;71.96
78592;BME280;67889;48.352;11.392;2023-02-18T07:34:24;96989.50;;;10.67;71.58
78592;BME280;67889;48.352;11.392;2023-02-18T07:36:49;96987.31;;;10.76;71.58
78592;BME280;67889;48.352;11.392;2023-02-18T07:39:14;96971.31;;;10.71;71.02
78592;BME280;67889;48.352;11.392;2023-02-18T07:41:42;96989.75;;;10.85;71.06
78592;BME280;67889;48.352;11.392;2023-02-18T07:44:07;96989.31;;;10.83;70.80
78592;BME280;67889;48.352;11.392;2023-02-18T07:46:32;96993.75;;;10.94;70.62
78592;BME280;67889;48.352;11.392;2023-02-18T07:48:58;96992.97;;;10.94;70.39
78592;BME280;67889;48.352;11.392;2023-02-18T07:51:23;96980.06;;;10.87;70.60
78592;BME280;67889;48.352;11.392;2023-02-18T07:53:48;96972.22;;;10.82;70.74
78592;BME280;67889;48.352;11.392;2023-02-18T07:56:13;96975.84;;;10.93;70.32
78592;BME280;67889;48.352;11.392;2023-02-18T07:58:39;96948.06;;;10.77;70.20
78592;BME280;67889;48.352;11.392;2023-02-18T08:01:11;96978.66;;;11.01;69.88
78592;BME280;67889;48.352;11.392;2023-02-18T08:03:38;96975.50;;;10.95;70.23
78592;BME280;67889;48.352;11.392;2023-02-18T08:06:04;96969.38;;;11.05;69.85
78592;BME280;67889;48.352;11.392;2023-02-18T08:08:30;96969.09;;;11.14;69.50
78592;BME280;67889;48.352;11.392;2023-02-18T08:10:58;96967.44;;;11.06;69.73
78592;BME280;67889;48.352;11.392;2023-02-18T08:13:25;96945.28;;;11.04;69.44
78592;BME280;67889;48.352;11.392;2023-02-18T08:15:54;96952.34;;;11.12;69.03
78592;BME280;67889;48.352;11.392;2023-02-18T08:18:21;96958.09;;;11.40;68.44
78592;BME280;67889;48.352;11.392;2023-02-18T08:20:47;96946.06;;;11.41;67.62
78592;BME280;67889;48.352;11.392;2023-02-18T08:23:13;96961.88;;;11.69;67.63
78592;BME280;67889;48.352;11.392;2023-02-18T08:25:39;96949.59;;;11.86;66.77
78592;BME280;67889;48.352;11.392;2023-02-18T08:28:05;96954.22;;;11.78;66.75
78592;BME280;67889;48.352;11.392;2023-02-18T08:30:30;96932.75;;;11.77;66.23
78592;BME280;67889;48.352;11.392;2023-02-18T08:32:56;96949.31;;;11.98;66.09
78592;BME280;67889;48.352;11.392;2023-02-18T08:35:21;96937.38;;;12.17;65.40
78592;BME280;67889;48.352;11.392;2023-02-18T08:37:47;96925.25;;;12.07;65.13
78592;BME280;67889;48.352;11.392;2023-02-18T08:40:12;96934.03;;;12.41;63.93
78592;BME280;67889;48.352;11.392;2023-02-18T08:42:38;96936.03;;;12.51;63.55
78592;BME280;67889;48.352;11.392;2023-02-18T08:45:04;96938.47;;;12.71;62.92
78592;BME280;67889;48.352;11.392;2023-02-18T08:47:30;96944.63;;;12.57;63.00
78592;BME280;67889;48.352;11.392;2023-02-18T08:49:55;96945.56;;;12.86;62.29
78592;BME280;67889;48.352;11.392;2023-02-18T08:52:21;96938.19;;;12.97;61.68
78592;BME280;67889;48.352;11.392;2023-02-18T08:54:46;96922.66;;;13.15;61.47
78592;BME280;67889;48.352;11.392;2023-02-18T08:57:12;96921.19;;;13.50;59.55
78592;BME280;67889;48.352;11.392;2023-02-18T08:59:37;96923.94;;;13.61;58.86
78592;BME280;67889;48.352;11.392;2023-02-18T09:02:02;96917.69;;;13.67;58.92
78592;BME280;67889;48.352;11.392;2023-02-18T09:04:28;96915.75;;;13.75;58.83
78592;BME280;67889;48.352;11.392;2023-02-18T09:06:53;96914.19;;;13.84;57.99
78592;BME280;67889;48.352;11.392;2023-02-18T09:09:19;96934.88;;;13.71;57.95
78592;BME280;67889;48.352;11.392;2023-02-18T09:11:44;96930.56;;;13.42;58.99
78592;BME280;67889;48.352;11.392;2023-02-18T09:14:10;96932.06;;;13.25;59.50
78592;BME280;67889;48.352;11.392;2023-02-18T09:16:35;96918.75;;;13.13;59.92
78592;BME280;67889;48.352;11.392;2023-02-18T09:19:03;96916.75;;;12.99;60.92
78592;BME280;67889;48.352;11.392;2023-02-18T09:21:28;96928.09;;;13.08;59.94
78592;BME280;67889;48.352;11.392;2023-02-18T09:23:54;96891.41;;;12.95;60.26
78592;BME280;67889;48.352;11.392;2023-02-18T09:26:20;96912.94;;;13.21;59.98
78592;BME280;67889;48.352;11.392;2023-02-18T09:28:47;96914.53;;;13.26;59.74
78592;BME280;67889;48.352;11.392;2023-02-18T09:31:15;96913.38;;;13.41;59.13
78592;BME280;67889;48.352;11.392;2023-02-18T09:33:46;96904.44;;;13.66;58.01
78592;BME280;67889;48.352;11.392;2023-02-18T09:36:13;96896.63;;;13.64;57.57
78592;BME280;67889;48.352;11.392;2023-02-18T09:38:38;96900.50;;;13.49;58.10
78592;BME280;67889;48.352;11.392;2023-02-18T09:41:08;96908.34;;;13.72;58.41
78592;BME280;67889;48.352;11.392;2023-02-18T09:43:41;96895.44;;;13.76;57.21
78592;BME280;67889;48.352;11.392;2023-02-18T09:46:30;96895.44;;;13.90;57.08
78592;BME280;67889;48.352;11.392;2023-02-18T09:49:02;96879.78;;;14.12;55.81
78592;BME280;67889;48.352;11.392;2023-02-18T09:51:30;96885.28;;;13.87;56.46
78592;BME280;67889;48.352;11.392;2023-02-18T09:53:56;96886.06;;;13.77;56.96
78592;BME280;67889;48.352;11.392;2023-02-18T09:56:31;96888.03;;;13.91;56.19
78592;BME280;67889;48.352;11.392;2023-02-18T09:58:58;96869.63;;;14.19;55.80
78592;BME280;67889;48.352;11.392;2023-02-18T10:01:28;96873.50;;;14.33;55.04
78592;BME280;67889;48.352;11.392;2023-02-18T10:03:59;96853.59;;;14.25;54.86
78592;BME280;67889;48.352;11.392;2023-02-18T10:06:29;96866.50;;;14.17;54.68
78592;BME280;67889;48.352;11.392;2023-02-18T10:08:56;96862.59;;;14.22;53.86
78592;BME280;67889;48.352;11.392;2023-02-18T10:11:37;96871.75;;;14.92;52.56
78592;BME280;67889;48.352;11.392;2023-02-18T10:14:08;96863.25;;;15.38;50.90
78592;BME280;67889;48.352;11.392;2023-02-18T10:16:34;96869.00;;;15.58;48.73
78592;BME280;67889;48.352;11.392;2023-02-18T10:19:04;96862.53;;;15.27;49.36
78592;BME280;67889;48.352;11.392;2023-02-18T10:21:34;96856.75;;;15.14;50.69
78592;BME280;67889;48.352;11.392;2023-02-18T10:26:44;96849.13;;;15.43;50.40
78592;BME280;67889;48.352;11.392;2023-02-18T10:29:15;96811.06;;;15.53;48.53
78592;BME280;67889;48.352;11.392;2023-02-18T10:34:29;96829.25;;;16.90;47.14
78592;BME280;67889;48.352;11.392;2023-02-18T10:37:06;96831.88;;;16.70;46.43
78592;BME280;67889;48.352;11.392;2023-02-18T10:39:50;96824.50;;;17.21;45.24
78592;BME280;67889;48.352;11.392;2023-02-18T10:47:59;96799.63;;;18.21;42.99
78592;BME280;67889;48.352;11.392;2023-02-18T10:50:43;96805.47;;;17.33;46.64
78592;BME280;67889;48.352;11.392;2023-02-18T10:55:47;96799.56;;;16.47;47.49
78592;BME280;67889;48.352;11.392;2023-02-18T10:58:32;96801.66;;;16.36;48.46
78592;BME280;67889;48.352;11.392;2023-02-18T11:01:00;96811.53;;;16.30;47.69
78592;BME280;67889;48.352;11.392;2023-02-18T11:03:42;96805.66;;;15.94;48.79
78592;BME280;67889;48.352;11.392;2023-02-18T11:06:41;96794.50;;;15.70;50.40
78592;BME280;67889;48.352;11.392;2023-02-18T11:09:29;96811.28;;;15.79;49.81
78592;BME280;67889;48.352;11.392;2023-02-18T11:14:45;96799.09;;;15.32;49.69
78592;BME280;67889;48.352;11.392;2023-02-18T11:17:25;96779.31;;;15.55;49.61
78592;BME280;67889;48.352;11.392;2023-02-18T11:19:53;96772.91;;;16.14;48.96
78592;BME280;67889;48.352;11.392;2023-02-18T11:22:22;96742.91;;;16.30;47.84
78592;BME280;67889;48.352;11.392;2023-02-18T11:24:53;96777.50;;;16.24;47.78
78592;BME280;67889;48.352;11.392;2023-02-18T11:27:40;96754.56;;;15.69;49.26
78592;BME280;67889;48.352;11.392;2023-02-18T11:30:19;96781.91;;;15.76;49.70
78592;BME280;67889;48.352;11.392;2023-02-18T11:32:48;96749.03;;;16.10;48.26
78592;BME280;67889;48.352;11.392;2023-02-18T11:35:24;96776.31;;;16.55;47.48
78592;BME280;67889;48.352;11.392;2023-02-18T11:37:50;96768.75;;;16.66;47.56
78592;BME280;67889;48.352;11.392;2023-02-18T11:40:29;96776.34;;;16.86;47.18
78592;BME280;67889;48.352;11.392;2023-02-18T11:43:08;96777.06;;;16.59;46.86
78592;BME280;67889;48.352;11.392;2023-02-18T11:45:36;96756.66;;;16.30;47.08
78592;BME280;67889;48.352;11.392;2023-02-18T11:48:07;96754.97;;;16.70;46.36
78592;BME280;67889;48.352;11.392;2023-02-18T11:50:34;96750.84;;;16.85;46.10
78592;BME280;67889;48.352;11.392;2023-02-18T11:52:59;96722.75;;;16.13;47.16
78592;BME280;67889;48.352;11.392;2023-02-18T11:55:27;96726.50;;;15.51;49.17
78592;BME280;67889;48.352;11.392;2023-02-18T11:58:05;96680.53;;;15.28;49.50
78592;BME280;67889;48.352;11.392;2023-02-18T12:00:43;96742.19;;;15.92;49.77
78592;BME280;67889;48.352;11.392;2023-02-18T12:05:43;96702.56;;;15.59;48.81
78592;BME280;67889;48.352;11.392;2023-02-18T12:08:18;96685.66;;;15.67;49.64
78592;BME280;67889;48.352;11.392;2023-02-18T12:10:48;96663.66;;;15.74;49.27
78592;BME280;67889;48.352;11.392;2023-02-18T12:19:01;96692.38;;;15.56;49.40
78592;BME280;67889;48.352;11.392;2023-02-18T12:27:07;96700.47;;;15.29;49.37
78592;BME280;67889;48.352;11.392;2023-02-18T12:46:33;96695.00;;;15.29;49.56
78592;BME280;67889;48.352;11.392;2023-02-18T12:58:35;96687.69;;;15.15;49.48
78592;BME280;67889;48.352;11.392;2023-02-18T13:00:51;96673.31;;;15.04;50.20
78592;BME280;67889;48.352;11.392;2023-02-18T13:12:03;96675.38;;;14.30;53.23
78592;BME280;67889;48.352;11.392;2023-02-18T13:14:40;96645.25;;;14.34;52.58
78592;BME280;67889;48.352;11.392;2023-02-18T13:17:08;96674.22;;;14.24;53.11
78592;BME280;67889;48.352;11.392;2023-02-18T13:19:56;96661.44;;;14.03;53.63
78592;BME280;67889;48.352;11.392;2023-02-18T13:22:26;96659.13;;;14.02;53.89
78592;BME280;67889;48.352;11.392;2023-02-18T13:24:54;96684.94;;;13.90;54.09
78592;BME280;67889;48.352;11.392;2023-02-18T13:30:14;96673.25;;;13.82;54.50
78592;BME280;67889;48.352;11.392;2023-02-18T13:33:07;96656.09;;;13.75;54.79
78592;BME280;67889;48.352;11.392;2023-02-18T13:35:47;96656.81;;;13.93;54.60
78592;BME280;67889;48.352;11.392;2023-02-18T13:40:59;96664.91;;;14.14;53.36
78592;BME280;67889;48.352;11.392;2023-02-18T13:43:33;96664.81;;;14.29;52.85
78592;BME280;67889;48.352;11.392;2023-02-18T13:46:18;96665.56;;;14.36;52.76
78592;BME280;67889;48.352;11.392;2023-02-18T13:51:33;96654.78;;;14.74;50.90
78592;BME280;67889;48.352;11.392;2023-02-18T13:54:44;96663.69;;;14.85;50.98
78592;BME280;67889;48.352;11.392;2023-02-18T14:04:49;96649.13;;;14.43;51.61
78592;BME280;67889;48.352;11.392;2023-02-18T14:07:28;96655.41;;;14.37;52.00
78592;BME280;67889;48.352;11.392;2023-02-18T14:12:40;96654.81;;;14.01;53.16
78592;BME280;67889;48.352;11.392;2023-02-18T14:20:42;96661.09;;;13.98;53.76
78592;BME280;67889;48.352;11.392;2023-02-18T14:25:49;96645.09;;;13.89;54.33
78592;BME280;67889;48.352;11.392;2023-02-18T14:31:05;96643.19;;;13.82;54.28
78592;BME280;67889;48.352;11.392;2023-02-18T14:42:12;96629.63;;;13.58;54.78
78592;BME280;67889;48.352;11.392;2023-02-18T14:50:16;96648.25;;;13.84;54.41
78592;BME280;67889;48.352;11.392;2023-02-18T14:52:46;96640.50;;;13.72;54.66
78592;BME280;67889;48.352;11.392;2023-02-18T14:55:25;96653.38;;;13.75;54.40
78592;BME280;67889;48.352;11.392;2023-02-18T14:57:55;96656.50;;;13.73;54.91
78592;BME280;67889;48.352;11.392;2023-02-18T15:00:26;96649.91;;;13.60;54.48
78592;BME280;67889;48.352;11.392;2023-02-18T15:02:56;96648.38;;;13.55;55.63
78592;BME280;67889;48.352;11.392;2023-02-18T15:05:24;96661.56;;;13.75;54.25
78592;BME280;67889;48.352;11.392;2023-02-18T15:08:02;96655.34;;;13.71;54.27
78592;BME280;67889;48.352;11.392;2023-02-18T15:10:42;96652.22;;;13.72;55.28
78592;BME280;67889;48.352;11.392;2023-02-18T15:13:13;96649.81;;;13.88;54.23
78592;BME280;67889;48.352;11.392;2023-02-18T15:15:42;96639.72;;;13.71;54.15
78592;BME280;67889;48.352;11.392;2023-02-18T15:18:19;96645.63;;;13.59;54.37
78592;BME280;67889;48.352;11.392;2023-02-18T15:20:46;96620.69;;;13.46;54.01